Time;durP1;ratioP1;P1;durP2;ratioP2;P2;SDS_P1;SDS_P2;PMS_P1;PMS_P2;Temp;Humidity;BMP_temperature;BMP_pressure;BME280_temperature;BME280_humidity;BME280_pressure;Samples;Min_cycle;Max_cycle;Signal;HPM_P1;HPM_P2
2023/08/05 00:00:34;;;;;;;5.13;3.90;;;17.90;99.90;;;;;;5014515;28;20472;-84
2023/08/05 00:03:02;;;;;;;5.87;4.33;;;17.90;99.90;;;;;;5030724;28;20485;-84
2023/08/05 00:05:39;;;;;;;5.43;3.70;;;17.90;99.90;;;;;;5037514;28;20446;-84
2023/08/05 00:08:14;;;;;;;7.40;3.90;;;17.90;1.00;;;;;;5014404;28;20461;-84
2023/08/05 00:11:10;;;;;;;6.17;4.00;;;17.90;1.00;;;;;;5027287;28;20498;-84
2023/08/05 00:13:51;;;;;;;7.40;4.93;;;17.80;1.00;;;;;;5013858;28;20447;-84
2023/08/05 00:16:23;;;;;;;5.70;4.10;;;17.80;1.00;;;;;;5029280;28;20474;-84
2023/08/05 00:19:30;;;;;;;13.20;4.73;;;17.80;1.00;;;;;;5011222;28;20554;-84
2023/08/05 00:24:43;;;;;;;6.20;5.60;;;17.70;99.90;;;;;;5024432;28;20428;-84
2023/08/05 00:27:08;;;;;;;6.90;5.10;;;17.70;99.90;;;;;;5012675;28;21166;-84
2023/08/05 00:29:36;;;;;;;9.47;4.83;;;17.70;1.00;;;;;;5031857;28;20192;-84
2023/08/05 00:32:16;;;;;;;6.13;4.27;;;17.70;1.00;;;;;;5028451;28;20548;-84
2023/08/05 00:34:45;;;;;;;6.40;4.70;;;17.60;99.90;;;;;;5030747;28;20432;-84
2023/08/05 00:37:14;;;;;;;8.23;5.17;;;17.60;99.90;;;;;;5015600;28;20837;-84
2023/08/05 00:39:39;;;;;;;10.10;5.83;;;17.60;1.00;;;;;;5010579;28;20471;-84
2023/08/05 00:42:06;;;;;;;5.17;4.67;;;17.50;1.00;;;;;;5028989;28;20888;-84
2023/08/05 00:44:31;;;;;;;6.80;5.10;;;17.40;1.00;;;;;;5030691;28;20192;-84
2023/08/05 00:46:57;;;;;;;7.90;5.67;;;17.40;7.80;;;;;;5031157;28;20434;-84
2023/08/05 00:49:23;;;;;;;7.00;5.00;;;17.40;99.90;;;;;;5026678;28;20220;-84
2023/08/05 00:51:49;;;;;;;9.53;5.50;;;17.30;99.90;;;;;;5028972;28;20472;-84
2023/08/05 00:54:15;;;;;;;10.63;5.00;;;17.20;1.00;;;;;;5011619;28;20438;-84
2023/08/05 00:56:42;;;;;;;12.43;5.90;;;17.20;1.00;;;;;;5030953;28;20436;-84
2023/08/05 00:59:08;;;;;;;7.67;5.13;;;17.10;26.00;;;;;;5031120;28;20513;-84
2023/08/05 01:01:34;;;;;;;6.10;5.50;;;17.10;99.90;;;;;;5030730;28;20470;-83
2023/08/05 01:03:59;;;;;;;7.60;6.10;;;17.10;99.90;;;;;;5030390;28;20210;-84
2023/08/05 01:06:25;;;;;;;7.83;5.03;;;17.00;99.90;;;;;;5028712;28;20179;-84
2023/08/05 01:08:52;;;;;;;10.30;5.53;;;17.00;1.00;;;;;;5030050;28;20200;-84
2023/08/05 01:11:18;;;;;;;15.03;5.80;;;16.90;1.00;;;;;;5030429;28;20899;-84
2023/08/05 01:13:44;;;;;;;8.70;5.30;;;16.90;1.00;;;;;;5012024;28;20425;-85
2023/08/05 01:16:09;;;;;;;6.97;5.43;;;16.90;1.00;;;;;;5031056;28;20480;-84
2023/08/05 01:18:39;;;;;;;7.43;5.80;;;16.90;1.00;;;;;;5012538;28;21063;-84
2023/08/05 01:21:28;;;;;;;19.57;5.67;;;16.90;8.50;;;;;;5013053;28;20322;-84
2023/08/05 01:24:17;;;;;;;7.43;5.83;;;16.90;72.40;;;;;;5009915;28;20436;-84
2023/08/05 01:26:43;;;;;;;9.37;5.47;;;16.80;99.90;;;;;;4991043;28;20446;-84
2023/08/05 01:29:09;;;;;;;11.90;6.70;;;16.80;99.90;;;;;;5028702;28;20551;-84
2023/08/05 01:31:35;;;;;;;7.60;5.87;;;16.80;99.90;;;;;;5030003;28;20442;-84
2023/08/05 01:34:02;;;;;;;10.10;5.57;;;16.80;99.90;;;;;;5012764;28;21010;-84
2023/08/05 01:36:31;;;;;;;10.30;6.23;;;16.70;99.90;;;;;;5011005;28;20454;-84
2023/08/05 01:38:57;;;;;;;9.57;6.57;;;16.70;99.90;;;;;;5012570;28;20506;-84
2023/08/05 01:41:23;;;;;;;8.53;6.13;;;16.60;99.90;;;;;;5009166;28;20978;-84
2023/08/05 01:43:48;;;;;;;17.37;7.70;;;16.50;99.90;;;;;;5012627;28;20184;-84
2023/08/05 01:46:14;;;;;;;7.10;6.40;;;16.50;99.90;;;;;;5025677;28;20919;-84
2023/08/05 01:48:40;;;;;;;7.80;6.40;;;16.40;99.90;;;;;;5029903;28;20681;-84
2023/08/05 01:51:05;;;;;;;11.53;6.47;;;16.40;99.90;;;;;;5030382;28;20194;-84
2023/08/05 01:53:31;;;;;;;9.90;7.33;;;16.30;99.90;;;;;;5030104;28;20276;-84
2023/08/05 01:55:56;;;;;;;9.87;6.47;;;16.20;99.90;;;;;;5029495;28;20235;-84
2023/08/05 01:58:24;;;;;;;10.67;7.33;;;16.20;99.90;;;;;;5007577;28;20210;-84
2023/08/05 02:00:51;;;;;;;10.73;6.53;;;16.10;99.90;;;;;;5017728;28;20581;-84
2023/08/05 02:03:16;;;;;;;11.43;7.40;;;16.00;99.90;;;;;;5028897;28;20430;-84
2023/08/05 02:05:42;;;;;;;12.70;7.03;;;16.00;99.90;;;;;;5037314;28;20436;-84
2023/08/05 02:08:08;;;;;;;12.17;6.90;;;16.00;99.90;;;;;;5012921;28;20345;-84
2023/08/05 02:10:33;;;;;;;9.67;7.33;;;16.00;99.90;;;;;;5033648;28;20213;-84
2023/08/05 02:12:59;;;;;;;9.83;7.40;;;15.90;99.90;;;;;;5015622;28;20241;-84
2023/08/05 02:15:26;;;;;;;9.67;7.00;;;15.90;99.90;;;;;;5029077;28;20203;-84
2023/08/05 02:17:51;;;;;;;10.67;7.27;;;15.90;99.90;;;;;;5027451;28;20592;-84
2023/08/05 02:20:17;;;;;;;16.00;7.30;;;15.90;1.00;;;;;;5030271;28;20465;-84
2023/08/05 02:22:43;;;;;;;8.83;7.00;;;15.90;1.00;;;;;;5011477;28;20269;-84
2023/08/05 02:25:11;;;;;;;12.20;7.40;;;15.80;1.00;;;;;;5011346;28;20205;-84
2023/08/05 02:27:36;;;;;;;9.20;7.40;;;15.80;1.00;;;;;;5012169;28;20225;-84
2023/08/05 02:30:02;;;;;;;8.33;7.47;;;15.80;1.00;;;;;;5029925;28;20800;-84
2023/08/05 02:32:28;;;;;;;10.90;7.60;;;15.80;1.00;;;;;;5007038;28;20190;-84
2023/08/05 02:34:53;;;;;;;14.03;8.00;;;15.80;1.00;;;;;;5013258;28;20232;-84
2023/08/05 02:37:19;;;;;;;14.73;7.90;;;15.80;1.00;;;;;;5011171;28;20249;-84
2023/08/05 02:39:45;;;;;;;10.70;7.07;;;15.80;1.00;;;;;;5029321;28;20296;-84
2023/08/05 02:42:10;;;;;;;10.63;7.77;;;15.80;1.00;;;;;;5009157;28;20564;-84
2023/08/05 02:44:36;;;;;;;10.57;7.23;;;15.70;1.00;;;;;;5029195;28;20182;-84
2023/08/05 02:47:04;;;;;;;11.13;6.80;;;15.70;1.00;;;;;;5011316;28;20186;-84
2023/08/05 02:49:32;;;;;;;12.53;7.70;;;15.70;1.00;;;;;;5026318;28;20578;-84
2023/08/05 02:51:58;;;;;;;11.63;7.20;;;15.60;1.00;;;;;;5012055;28;21192;-84
2023/08/05 02:54:23;;;;;;;12.43;8.40;;;15.60;1.00;;;;;;5029062;28;20432;-84
2023/08/05 02:56:49;;;;;;;11.33;7.47;;;15.60;1.00;;;;;;5028708;28;20265;-84
2023/08/05 02:59:14;;;;;;;15.50;8.40;;;15.60;1.00;;;;;;5029801;28;20213;-84
2023/08/05 03:01:40;;;;;;;13.57;7.30;;;15.50;1.00;;;;;;5029637;28;20745;-84
2023/08/05 03:04:06;;;;;;;9.13;7.97;;;15.50;1.00;;;;;;5028923;28;20194;-84
2023/08/05 03:06:31;;;;;;;10.17;7.27;;;15.50;1.00;;;;;;5008059;28;20178;-84
2023/08/05 03:08:57;;;;;;;9.67;7.97;;;15.50;1.00;;;;;;5028991;28;20212;-84
2023/08/05 03:11:22;;;;;;;17.70;7.37;;;15.50;1.00;;;;;;5027891;28;20183;-84
2023/08/05 03:13:48;;;;;;;11.90;7.00;;;15.50;1.00;;;;;;5009931;28;20185;-84
2023/08/05 03:16:14;;;;;;;10.63;7.60;;;15.50;1.00;;;;;;5028465;28;20191;-84
2023/08/05 03:18:40;;;;;;;14.43;8.40;;;15.50;1.00;;;;;;5011098;28;20213;-84
2023/08/05 03:21:06;;;;;;;11.33;7.97;;;15.50;1.00;;;;;;5029484;28;21004;-84
2023/08/05 03:23:31;;;;;;;9.50;7.17;;;15.50;1.00;;;;;;5008108;28;20433;-84
2023/08/05 03:25:57;;;;;;;10.40;7.73;;;15.50;1.00;;;;;;5029482;28;20565;-84
2023/08/05 03:28:22;;;;;;;11.67;7.40;;;15.50;1.00;;;;;;5028593;28;20280;-84
2023/08/05 03:30:48;;;;;;;13.30;7.17;;;15.50;1.00;;;;;;5028899;28;20204;-84
2023/08/05 03:33:14;;;;;;;13.47;7.53;;;15.40;1.00;;;;;;5028618;28;20826;-84
2023/08/05 03:35:43;;;;;;;8.20;6.53;;;15.40;1.00;;;;;;5011157;28;20211;-84
2023/08/05 03:38:09;;;;;;;14.50;7.53;;;15.30;1.00;;;;;;5028096;28;20280;-84
2023/08/05 03:40:35;;;;;;;14.30;7.10;;;15.30;1.00;;;;;;5026145;28;20677;-84
2023/08/05 03:43:01;;;;;;;8.57;7.57;;;15.30;1.00;;;;;;5013333;28;20252;-84
2023/08/05 03:45:27;;;;;;;9.30;6.63;;;15.30;1.00;;;;;;5014355;28;20200;-84
2023/08/05 03:47:53;;;;;;;8.67;6.97;;;15.20;1.00;;;;;;5031986;28;20542;-84
2023/08/05 03:50:20;;;;;;;13.23;7.90;;;15.20;1.00;;;;;;5032832;28;20182;-84
2023/08/05 03:52:48;;;;;;;10.00;7.13;;;15.20;1.00;;;;;;5013384;28;21032;-84
2023/08/05 03:55:14;;;;;;;10.07;6.53;;;15.20;1.00;;;;;;5032777;28;20942;-84
2023/08/05 03:57:40;;;;;;;8.63;7.27;;;15.20;1.00;;;;;;5013529;28;20974;-84
2023/08/05 04:00:09;;;;;;;19.97;7.03;;;15.20;1.00;;;;;;5031612;28;21173;-84
2023/08/05 04:02:35;;;;;;;10.40;7.23;;;15.20;1.00;;;;;;5013057;28;20437;-84
2023/08/05 04:05:02;;;;;;;11.40;7.87;;;15.20;1.00;;;;;;5032338;28;20937;-84
2023/08/05 04:07:27;;;;;;;9.90;8.03;;;15.20;1.00;;;;;;5032586;28;20456;-84
2023/08/05 04:09:53;;;;;;;11.87;7.37;;;15.30;1.00;;;;;;5032080;28;20582;-84
2023/08/05 04:12:19;;;;;;;8.83;7.40;;;15.30;1.00;;;;;;5010600;28;20186;-84
2023/08/05 04:14:45;;;;;;;12.33;8.67;;;15.30;1.00;;;;;;5028982;28;20800;-84
2023/08/05 04:17:15;;;;;;;11.63;8.67;;;15.30;1.00;;;;;;5013031;28;20587;-84
2023/08/05 04:19:41;;;;;;;10.53;7.90;;;15.40;1.00;;;;;;5031940;28;20482;-84
2023/08/05 04:22:07;;;;;;;12.80;8.97;;;15.40;1.00;;;;;;5031384;28;20437;-84
2023/08/05 04:24:33;;;;;;;9.93;7.60;;;15.40;1.00;;;;;;5031536;28;20467;-84
2023/08/05 04:26:59;;;;;;;10.70;7.93;;;15.40;1.00;;;;;;5027528;28;20189;-84
2023/08/05 04:29:25;;;;;;;12.83;8.77;;;15.50;1.00;;;;;;5031441;28;20981;-85
2023/08/05 04:31:52;;;;;;;13.40;8.27;;;15.50;1.00;;;;;;5009349;28;20470;-84
2023/08/05 04:34:18;;;;;;;7.50;6.80;;;15.50;1.00;;;;;;5031010;28;20537;-84
2023/08/05 04:36:51;;;;;;;13.27;8.33;;;15.60;1.00;;;;;;4998497;28;20431;-84
2023/08/05 04:39:20;;;;;;;14.60;8.93;;;15.60;99.90;;;;;;5027034;28;22957;-84
2023/08/05 04:41:46;;;;;;;10.07;7.80;;;15.60;99.90;;;;;;5031378;28;20468;-84
2023/08/05 04:44:12;;;;;;;14.00;8.27;;;15.70;99.90;;;;;;5014026;28;20448;-84
2023/08/05 04:46:38;;;;;;;9.70;7.97;;;15.70;99.90;;;;;;5023329;28;20201;-84
2023/08/05 04:49:08;;;;;;;9.40;7.67;;;15.80;99.90;;;;;;5014359;28;20226;-85
2023/08/05 04:51:37;;;;;;;14.20;7.97;;;15.80;99.90;;;;;;5032042;28;20783;-84
2023/08/05 04:54:04;;;;;;;9.20;7.70;;;15.90;99.90;;;;;;5012090;28;20527;-84
2023/08/05 04:56:30;;;;;;;12.40;7.73;;;15.90;99.90;;;;;;5030539;28;20449;-84
2023/08/05 04:58:55;;;;;;;10.87;8.07;;;15.90;99.90;;;;;;5030785;28;20461;-84
2023/08/05 05:01:21;;;;;;;15.40;8.47;;;16.00;99.90;;;;;;5025190;28;20210;-84
2023/08/05 05:03:48;;;;;;;12.60;8.10;;;16.00;99.90;;;;;;5008765;28;20182;-84
2023/08/05 05:06:14;;;;;;;14.07;8.70;;;16.00;99.90;;;;;;5028176;28;20346;-84
2023/08/05 05:08:40;;;;;;;12.70;8.27;;;16.00;99.90;;;;;;5011740;28;20520;-84
2023/08/05 05:11:07;;;;;;;13.63;9.43;;;16.00;99.90;;;;;;5022015;28;20194;-84
2023/08/05 05:13:33;;;;;;;10.63;8.30;;;16.00;99.90;;;;;;5028088;28;20190;-84
2023/08/05 05:15:58;;;;;;;17.70;8.70;;;16.10;96.10;;;;;;5031412;28;21020;-84
2023/08/05 05:18:24;;;;;;;11.00;9.60;;;16.10;77.50;;;;;;5024752;28;20214;-84
2023/08/05 05:20:50;;;;;;;11.53;9.00;;;16.10;29.40;;;;;;5029393;28;20268;-84
2023/08/05 05:23:16;;;;;;;14.83;8.97;;;16.20;1.00;;;;;;5024398;28;20192;-84
2023/08/05 05:25:41;;;;;;;16.10;8.87;;;16.20;1.00;;;;;;5012284;28;20485;-84
2023/08/05 05:28:07;;;;;;;12.97;9.00;;;16.30;1.00;;;;;;5029721;28;20479;-84
2023/08/05 05:30:35;;;;;;;11.00;9.23;;;16.50;1.00;;;;;;5027802;28;20264;-84
2023/08/05 05:33:00;;;;;;;10.30;8.30;;;16.70;1.00;;;;;;5018768;28;20199;-84
2023/08/05 05:35:26;;;;;;;14.90;10.37;;;16.90;99.90;;;;;;5031571;28;20967;-84
2023/08/05 05:37:51;;;;;;;11.70;8.70;;;17.10;99.90;;;;;;5027754;28;20217;-84
2023/08/05 05:40:17;;;;;;;9.90;8.90;;;17.20;1.00;;;;;;5027814;28;20223;-84
2023/08/05 05:42:42;;;;;;;13.43;8.93;;;17.30;1.00;;;;;;5021879;28;20272;-84
2023/08/05 05:45:08;;;;;;;11.63;7.40;;;17.50;99.90;;;;;;5031597;28;20747;-85
2023/08/05 05:47:34;;;;;;;12.20;7.60;;;18.10;1.00;;;;;;5029181;28;20620;-85
2023/08/05 05:50:00;;;;;;;7.90;6.63;;;19.50;99.90;;;;;;5029636;28;20436;-85
2023/08/05 05:52:26;;;;;;;7.87;7.00;;;20.90;99.90;;;;;;5030688;28;20447;-85
2023/08/05 05:54:51;;;;;;;11.00;6.03;;;24.10;1.00;;;;;;5030210;28;20289;-85
2023/08/05 05:57:17;;;;;;;6.83;5.80;;;26.60;1.00;;;;;;5029163;28;20273;-85
2023/08/05 05:59:43;;;;;;;8.87;6.73;;;26.00;1.00;;;;;;5022829;28;20630;-85
2023/08/05 06:02:09;;;;;;;8.93;7.10;;;24.70;1.00;;;;;;5030130;28;20185;-85
2023/08/05 06:04:35;;;;;;;9.07;6.73;;;23.70;1.00;;;;;;5030372;28;20535;-84
2023/08/05 06:07:02;;;;;;;8.60;6.70;;;23.70;1.00;;;;;;5009310;28;20182;-85
2023/08/05 06:09:29;;;;;;;9.10;6.70;;;24.80;1.00;;;;;;5025960;28;20463;-85
2023/08/05 06:11:55;;;;;;;9.47;6.43;;;25.30;1.00;;;;;;5030009;28;20433;-85
2023/08/05 06:14:21;;;;;;;6.93;6.00;;;25.30;1.00;;;;;;5028750;28;20443;-86
2023/08/05 06:16:46;;;;;;;6.83;6.13;;;27.70;1.00;;;;;;5026679;28;20179;-85
2023/08/05 06:19:12;;;;;;;8.93;5.77;;;30.00;1.00;;;;;;5027942;28;20198;-85
2023/08/05 06:21:37;;;;;;;6.13;5.53;;;31.00;99.90;;;;;;5007148;28;20211;-85
2023/08/05 06:24:03;;;;;;;6.77;5.60;;;33.70;99.90;;;;;;5028476;28;20819;-85
2023/08/05 06:26:29;;;;;;;7.23;5.50;;;32.00;99.90;;;;;;5030213;28;20186;-85
2023/08/05 06:28:54;;;;;;;7.63;6.00;;;32.80;99.90;;;;;;5028161;28;20683;-85
2023/08/05 06:31:20;;;;;;;7.20;6.50;;;31.30;99.90;;;;;;5027823;28;20457;-85
2023/08/05 06:33:45;;;;;;;11.63;7.20;;;29.30;99.90;;;;;;5025691;28;20651;-85
2023/08/05 06:36:11;;;;;;;7.80;7.10;;;28.50;99.90;;;;;;5012787;28;20178;-85
2023/08/05 06:38:37;;;;;;;12.90;7.37;;;28.20;99.90;;;;;;5010273;28;20297;-85
2023/08/05 06:41:02;;;;;;;11.80;7.23;;;31.00;99.90;;;;;;5001828;28;20319;-86
2023/08/05 06:43:28;;;;;;;8.60;5.90;;;33.30;99.90;;;;;;5029297;28;20190;-86
2023/08/05 06:45:53;;;;;;;9.47;7.27;;;35.30;99.90;;;;;;5029708;28;20190;-86
2023/08/05 06:48:19;;;;;;;7.07;6.10;;;37.10;99.90;;;;;;5030118;28;20205;-87
2023/08/05 06:50:44;;;;;;;8.10;5.30;;;41.60;99.90;;;;;;5032994;28;20269;-87
2023/08/05 06:53:10;;;;;;;6.10;5.47;;;42.90;99.90;;;;;;5030380;28;20182;-86
2023/08/05 06:55:35;;;;;;;6.93;6.13;;;41.20;99.90;;;;;;5030726;28;20182;-86
2023/08/05 06:58:01;;;;;;;6.60;5.93;;;39.10;99.90;;;;;;5025796;28;20210;-86
2023/08/05 07:00:27;;;;;;;7.30;6.40;;;37.40;99.90;;;;;;5029905;28;20218;-86
2023/08/05 07:02:53;;;;;;;6.27;5.53;;;35.70;99.90;;;;;;5006256;28;20183;-85
2023/08/05 07:05:18;;;;;;;8.20;6.30;;;34.00;99.90;;;;;;5029417;28;20428;-85
2023/08/05 07:07:44;;;;;;;8.10;6.03;;;32.70;99.90;;;;;;5012497;28;20296;-85
2023/08/05 07:10:11;;;;;;;9.33;5.90;;;31.40;99.90;;;;;;5030624;28;20240;-85
2023/08/05 07:12:37;;;;;;;8.03;6.80;;;30.30;99.90;;;;;;5029689;28;20174;-85
2023/08/05 07:15:03;;;;;;;7.63;6.23;;;29.60;99.90;;;;;;5027718;28;20570;-85
2023/08/05 07:17:29;;;;;;;11.47;6.83;;;29.30;99.90;;;;;;5008529;28;20213;-85
2023/08/05 07:19:54;;;;;;;7.50;5.37;;;29.30;99.90;;;;;;5033678;28;20472;-85
2023/08/05 07:22:20;;;;;;;6.27;5.67;;;29.40;99.90;;;;;;5032881;28;20538;-85
2023/08/05 07:24:46;;;;;;;7.63;5.77;;;29.60;99.90;;;;;;5016676;28;20644;-85
2023/08/05 07:27:12;;;;;;;8.67;6.20;;;30.00;99.90;;;;;;5014401;28;20439;-85
2023/08/05 07:29:38;;;;;;;7.07;6.37;;;30.30;99.90;;;;;;5033624;28;20968;-85
2023/08/05 07:32:04;;;;;;;8.87;6.47;;;30.50;99.90;;;;;;5032905;28;20444;-85
2023/08/05 07:34:32;;;;;;;8.77;6.00;;;30.60;99.90;;;;;;5026640;28;20190;-84
2023/08/05 07:37:01;;;;;;;7.70;5.53;;;30.80;99.90;;;;;;5013396;28;20471;-84
2023/08/05 07:39:33;;;;;;;7.93;5.87;;;30.70;99.90;;;;;;5013068;28;20479;-84
2023/08/05 07:42:03;;;;;;;9.07;5.30;;;30.70;99.90;;;;;;5015624;28;20985;-84
2023/08/05 07:44:32;;;;;;;6.10;5.47;;;30.40;99.90;;;;;;5026806;28;20436;-84
2023/08/05 07:46:59;;;;;;;8.40;5.97;;;30.20;99.90;;;;;;5027343;28;20518;-84
2023/08/05 07:49:26;;;;;;;16.93;6.13;;;29.70;99.90;;;;;;5028748;28;20999;-84
2023/08/05 07:51:55;;;;;;;6.73;5.47;;;29.40;99.90;;;;;;5028377;28;20436;-85
2023/08/05 07:54:21;;;;;;;10.27;6.00;;;28.90;99.90;;;;;;5020670;28;20438;-84
2023/08/05 07:56:48;;;;;;;7.80;5.60;;;28.20;99.90;;;;;;5031079;28;20934;-85
2023/08/05 07:59:17;;;;;;;7.33;5.63;;;28.00;99.90;;;;;;5023943;28;20615;-86
2023/08/05 08:01:43;;;;;;;8.80;5.90;;;29.00;99.90;;;;;;5022792;28;20547;-85
2023/08/05 08:04:13;;;;;;;9.03;6.67;;;29.80;99.90;;;;;;5029246;28;20887;-85
2023/08/05 08:06:43;;;;;;;6.30;5.47;;;31.30;99.90;;;;;;5025485;28;20528;-85
2023/08/05 08:09:09;;;;;;;7.13;5.43;;;32.30;99.90;;;;;;5022839;28;20556;-85
2023/08/05 08:11:35;;;;;;;6.77;5.60;;;32.90;99.90;;;;;;5021719;28;20533;-84
2023/08/05 08:14:00;;;;;;;6.93;5.70;;;33.00;99.90;;;;;;5023402;28;20193;-85
2023/08/05 08:16:26;;;;;;;6.03;5.53;;;32.40;99.90;;;;;;5018594;28;20205;-84
2023/08/05 08:18:51;;;;;;;5.20;4.70;;;32.40;99.90;;;;;;4999865;28;20210;-85
2023/08/05 08:21:17;;;;;;;6.90;5.80;;;32.80;99.90;;;;;;4999848;28;20885;-84
2023/08/05 08:23:42;;;;;;;7.60;5.50;;;33.50;99.90;;;;;;5017911;28;20248;-84
2023/08/05 08:26:08;;;;;;;7.10;5.97;;;33.20;99.90;;;;;;5024700;28;20830;-85
2023/08/05 08:28:34;;;;;;;7.33;4.87;;;32.70;99.90;;;;;;5022590;28;20202;-85
2023/08/05 08:30:59;;;;;;;8.77;5.30;;;32.90;99.90;;;;;;5020817;28;20218;-85
2023/08/05 08:33:26;;;;;;;7.00;5.50;;;32.80;99.90;;;;;;5014106;28;20846;-85
2023/08/05 08:35:52;;;;;;;5.63;5.07;;;32.60;99.90;;;;;;5022513;28;20190;-85
2023/08/05 08:38:25;;;;;;;6.17;5.57;;;32.70;99.90;;;;;;5020502;28;20543;-85
2023/08/05 08:40:55;;;;;;;5.77;5.17;;;33.50;99.90;;;;;;5020596;28;20217;-86
2023/08/05 08:43:21;;;;;;;4.50;4.10;;;35.80;99.90;;;;;;5024005;28;20988;-86
2023/08/05 08:45:50;;;;;;;6.27;4.73;;;39.00;99.90;;;;;;5019952;28;20444;-84
2023/08/05 08:48:16;;;;;;;5.40;4.50;;;41.30;99.90;;;;;;5022911;28;20822;-84
2023/08/05 08:50:43;;;;;;;5.67;5.10;;;43.50;99.90;;;;;;5023918;28;20433;-84
2023/08/05 08:53:10;;;;;;;5.40;3.90;;;43.70;99.90;;;;;;5023271;28;20449;-83
2023/08/05 08:55:37;;;;;;;5.70;4.20;;;41.60;99.90;;;;;;5021133;28;20440;-84
2023/08/05 08:58:02;;;;;;;7.10;4.03;;;42.40;99.90;;;;;;5020801;28;22075;-84
2023/08/05 09:00:29;;;;;;;5.73;4.40;;;43.60;99.90;;;;;;5002768;28;20468;-84
2023/08/05 09:02:56;;;;;;;5.40;4.90;;;43.80;99.90;;;;;;5001349;28;20190;-83
2023/08/05 09:05:21;;;;;;;5.90;5.07;;;41.40;99.90;;;;;;5021167;28;20446;-84
2023/08/05 09:07:48;;;;;;;7.57;4.67;;;39.80;99.90;;;;;;5021628;28;20464;-84
2023/08/05 09:10:17;;;;;;;3.83;3.23;;;37.30;99.90;;;;;;5022450;28;20879;-83
2023/08/05 09:12:43;;;;;;;2.40;2.07;;;40.00;99.90;;;;;;5021729;28;20448;-84
2023/08/05 09:15:13;;;;;;;2.63;2.03;;;42.60;99.90;;;;;;5017042;28;20487;-84
2023/08/05 09:17:39;;;;;;;2.87;2.03;;;44.00;99.90;;;;;;5019480;28;20464;-84
2023/08/05 09:20:16;;;;;;;4.77;2.20;;;44.50;99.90;;;;;;5015712;28;20468;-84
2023/08/05 09:22:53;;;;;;;4.23;3.07;;;44.00;99.90;;;;;;5021630;28;20184;-83
2023/08/05 09:25:19;;;;;;;2.60;1.80;;;42.30;99.90;;;;;;5018869;28;20439;-84
2023/08/05 09:27:46;;;;;;;2.70;1.67;;;43.30;99.90;;;;;;5019476;28;20461;-83
2023/08/05 09:30:17;;;;;;;4.50;2.07;;;41.40;99.90;;;;;;5019222;28;20217;-84
2023/08/05 09:32:44;;;;;;;2.50;1.50;;;42.20;99.90;;;;;;5018441;28;20463;-84
2023/08/05 09:35:10;;;;;;;4.77;1.43;;;42.70;99.90;;;;;;5020561;28;20433;-84
2023/08/05 09:37:40;;;;;;;1.20;1.03;;;44.40;99.90;;;;;;5019265;28;20470;-85
2023/08/05 09:40:21;;;;;;;1.30;0.93;;;45.20;99.90;;;;;;5021349;28;20562;-84
2023/08/05 09:43:02;;;;;;;1.97;1.10;;;44.60;99.90;;;;;;4996392;28;20444;-84
2023/08/05 09:45:30;;;;;;;2.27;1.30;;;44.60;99.90;;;;;;5020942;28;20436;-84
2023/08/05 09:48:10;;;;;;;1.87;0.83;;;44.20;99.90;;;;;;4995770;28;20469;-84
2023/08/05 09:50:37;;;;;;;2.27;1.07;;;43.20;99.90;;;;;;4989196;28;20455;-83
2023/08/05 09:53:08;;;;;;;2.17;1.23;;;42.80;99.90;;;;;;5003188;28;20902;-84
2023/08/05 09:55:37;;;;;;;1.10;1.00;;;43.70;99.90;;;;;;5025468;28;20433;-84
2023/08/05 09:58:09;;;;;;;2.40;1.30;;;43.70;99.90;;;;;;5023510;28;20472;-84
2023/08/05 10:00:36;;;;;;;1.67;1.07;;;41.50;99.90;;;;;;5020358;28;20511;-84
2023/08/05 10:03:07;;;;;;;2.13;1.10;;;40.60;99.90;;;;;;4999211;28;20442;-84
2023/08/05 10:05:34;;;;;;;2.20;1.00;;;40.30;99.90;;;;;;5018796;28;20438;-84
2023/08/05 10:08:00;;;;;;;1.60;0.80;;;39.30;99.90;;;;;;5018377;28;20475;-83
2023/08/05 10:10:27;;;;;;;3.13;1.17;;;38.30;99.90;;;;;;5020738;28;20464;-83
2023/08/05 10:13:00;;;;;;;2.33;1.03;;;38.20;99.90;;;;;;5000011;28;20663;-83
2023/08/05 10:15:29;;;;;;;1.30;1.10;;;38.20;99.90;;;;;;5006441;28;20452;-83
2023/08/05 10:17:55;;;;;;;1.93;1.30;;;38.00;99.90;;;;;;5015151;28;20449;-83
2023/08/05 10:20:21;;;;;;;1.43;1.10;;;38.20;99.90;;;;;;5001022;28;20530;-83
2023/08/05 10:23:13;;;;;;;2.27;1.00;;;37.30;99.90;;;;;;5000985;28;20255;-83
2023/08/05 10:25:49;;;;;;;2.13;1.30;;;36.40;99.90;;;;;;5027243;28;20182;-83
2023/08/05 10:28:23;;;;;;;2.13;1.60;;;35.90;99.90;;;;;;5025455;28;20502;-82
2023/08/05 10:30:49;;;;;;;2.50;1.70;;;35.90;99.90;;;;;;5023176;28;20448;-83
2023/08/05 10:33:18;;;;;;;2.50;1.50;;;35.20;99.90;;;;;;5027822;28;20487;-82
2023/08/05 10:35:45;;;;;;;2.23;1.30;;;34.70;99.90;;;;;;5012805;28;20182;-82
2023/08/05 10:38:21;;;;;;;2.13;1.50;;;33.80;99.90;;;;;;5011145;28;20486;-82
2023/08/05 10:40:48;;;;;;;2.07;1.50;;;32.90;99.90;;;;;;5027059;28;20464;-82
2023/08/05 10:43:31;;;;;;;2.70;1.83;;;32.10;99.90;;;;;;5026005;28;20465;-82
2023/08/05 10:46:06;;;;;;;2.23;1.73;;;31.70;99.90;;;;;;5028700;28;20447;-82
2023/08/05 10:48:38;;;;;;;2.83;1.57;;;31.60;99.90;;;;;;5025619;28;20531;-82
2023/08/05 10:51:07;;;;;;;2.20;1.60;;;31.60;99.90;;;;;;5009334;28;20445;-82
2023/08/05 10:53:34;;;;;;;2.90;1.70;;;31.20;99.90;;;;;;5025122;28;20498;-82
2023/08/05 10:56:00;;;;;;;1.90;1.70;;;31.00;99.90;;;;;;5023950;28;20449;-82
2023/08/05 10:58:29;;;;;;;2.40;1.77;;;30.80;99.90;;;;;;5009836;28;20563;-82
2023/08/05 11:01:01;;;;;;;2.87;1.63;;;31.00;99.90;;;;;;5006711;28;20688;-83
2023/08/05 11:03:45;;;;;;;5.67;1.73;;;31.50;99.90;;;;;;5021303;28;21079;-83
2023/08/05 11:06:12;;;;;;;3.50;2.03;;;32.00;99.90;;;;;;5005383;28;20985;-83
2023/08/05 11:08:40;;;;;;;2.90;1.90;;;32.80;99.90;;;;;;5023352;28;20456;-83
2023/08/05 11:11:10;;;;;;;2.90;1.87;;;33.80;99.90;;;;;;5027040;28;21215;-84
2023/08/05 11:13:50;;;;;;;2.93;2.00;;;34.80;99.90;;;;;;5008764;28;20448;-84
2023/08/05 11:16:19;;;;;;;2.60;1.73;;;35.30;99.90;;;;;;5004514;28;20539;-84
2023/08/05 11:18:54;;;;;;;2.00;1.50;;;35.60;99.90;;;;;;5005975;28;21016;-84
2023/08/05 11:21:25;;;;;;;3.30;1.57;;;35.80;99.90;;;;;;5022791;28;20475;-84
2023/08/05 11:23:50;;;;;;;2.10;1.53;;;34.90;99.90;;;;;;5017641;28;20429;-84
2023/08/05 11:26:21;;;;;;;1.93;1.60;;;34.90;99.90;;;;;;5005271;28;20514;-84
2023/08/05 11:29:00;;;;;;;2.10;1.63;;;36.00;99.90;;;;;;5026830;28;20206;-86
2023/08/05 11:31:26;;;;;;;1.80;1.47;;;36.90;99.90;;;;;;5025303;28;20468;-84
2023/08/05 11:33:53;;;;;;;1.93;1.73;;;37.60;99.90;;;;;;5018813;28;20448;-85
2023/08/05 11:36:26;;;;;;;2.10;1.90;;;36.70;99.90;;;;;;5007759;28;20217;-84
2023/08/05 11:38:54;;;;;;;1.60;1.50;;;34.90;99.90;;;;;;4999575;28;20506;-83
2023/08/05 11:41:20;;;;;;;3.10;1.43;;;33.70;99.90;;;;;;5026610;28;20445;-85
2023/08/05 11:43:45;;;;;;;2.80;1.70;;;32.60;99.90;;;;;;5027070;28;20441;-86
2023/08/05 11:46:25;;;;;;;2.97;2.33;;;31.70;99.90;;;;;;5025390;28;20186;-86
2023/08/05 11:49:08;;;;;;;3.07;2.30;;;30.70;99.90;;;;;;5007366;28;20217;-86
2023/08/05 11:52:09;;;;;;;5.07;3.03;;;29.30;99.90;;;;;;5009958;28;20476;-85
2023/08/05 11:54:35;;;;;;;6.00;3.03;;;27.60;91.10;;;;;;5019618;28;21034;-86
2023/08/05 11:57:16;;;;;;;3.60;2.80;;;26.50;99.90;;;;;;5027903;28;20483;-86
2023/08/05 11:59:44;;;;;;;5.73;2.40;;;26.20;99.90;;;;;;5028831;28;20181;-85
2023/08/05 12:02:11;;;;;;;3.47;2.87;;;26.50;99.90;;;;;;5020629;28;20437;-86
2023/08/05 12:04:50;;;;;;;4.33;2.60;;;27.00;99.90;;;;;;5028122;28;20483;-87
2023/08/05 12:07:18;;;;;;;3.93;2.80;;;28.10;99.90;;;;;;5002876;28;20445;-86
2023/08/05 12:09:44;;;;;;;5.43;2.40;;;29.20;99.90;;;;;;5025967;28;20433;-87
2023/08/05 12:12:20;;;;;;;2.43;2.13;;;30.00;99.90;;;;;;5021631;28;20986;-87
2023/08/05 12:14:45;;;;;;;2.77;2.23;;;30.30;99.90;;;;;;5029412;28;20509;-88
2023/08/05 12:17:11;;;;;;;3.30;2.50;;;30.30;99.90;;;;;;5031561;28;20441;-86
2023/08/05 12:19:41;;;;;;;3.37;2.40;;;29.70;99.90;;;;;;5013949;28;20181;-86
2023/08/05 12:22:06;;;;;;;4.30;2.70;;;29.00;99.90;;;;;;5027916;28;20541;-85
2023/08/05 12:24:32;;;;;;;2.33;2.13;;;28.60;99.90;;;;;;5027009;28;20940;-85
2023/08/05 12:26:58;;;;;;;4.80;2.80;;;28.30;99.90;;;;;;5028159;28;20186;-85
2023/08/05 12:29:23;;;;;;;2.73;2.37;;;28.30;99.90;;;;;;5012956;28;20229;-85
2023/08/05 12:31:49;;;;;;;4.80;2.60;;;28.20;99.90;;;;;;5004360;28;20206;-88
2023/08/05 12:34:17;;;;;;;3.43;2.13;;;27.80;99.90;;;;;;5027983;28;21175;-88
2023/08/05 12:36:44;;;;;;;4.40;2.57;;;27.60;99.90;;;;;;5009629;28;20182;-84
2023/08/05 12:39:09;;;;;;;4.27;1.90;;;27.40;99.90;;;;;;5024769;28;20445;-85
2023/08/05 12:41:35;;;;;;;2.40;2.00;;;27.30;99.90;;;;;;5027535;28;20445;-85
2023/08/05 12:44:01;;;;;;;2.50;2.10;;;27.20;99.90;;;;;;5025520;28;20186;-86
2023/08/05 12:46:26;;;;;;;2.17;1.97;;;27.00;99.90;;;;;;5013373;28;20186;-85
2023/08/05 12:48:52;;;;;;;2.20;1.60;;;26.60;99.90;;;;;;5031661;28;20457;-85
2023/08/05 12:51:18;;;;;;;5.33;1.80;;;26.20;99.90;;;;;;5030561;28;20602;-85
2023/08/05 12:53:43;;;;;;;3.93;1.83;;;26.10;99.90;;;;;;5029277;28;20251;-85